createdAt,value
2023-05-09T00:00:43.826Z,93020.00
2023-05-09T00:01:43.885Z,93020.00
2023-05-09T00:02:43.874Z,93018.00
2023-05-09T00:03:43.837Z,93018.00
2023-05-09T00:04:43.920Z,93014.00
2023-05-09T00:05:43.838Z,93014.00
2023-05-09T00:06:43.852Z,93014.00
2023-05-09T00:07:43.852Z,93012.00
2023-05-09T00:08:43.860Z,93012.00
2023-05-09T00:09:43.868Z,93010.00
2023-05-09T00:10:43.854Z,93010.00
2023-05-09T00:11:43.933Z,93010.00
2023-05-09T00:12:43.869Z,93008.00
2023-05-09T00:13:43.806Z,93010.00
2023-05-09T00:14:43.793Z,93006.00
2023-05-09T00:15:43.778Z,93004.00
2023-05-09T00:16:43.794Z,93004.00
2023-05-09T00:17:43.812Z,93004.00
2023-05-09T00:18:43.754Z,93002.00
2023-05-09T00:19:43.713Z,93004.00
2023-05-09T00:20:43.715Z,93004.00
2023-05-09T00:21:43.700Z,93002.00
2023-05-09T00:22:43.685Z,93004.00
2023-05-09T00:23:43.681Z,93004.00
2023-05-09T00:24:43.651Z,93004.00
2023-05-09T00:25:43.650Z,93004.00
2023-05-09T00:26:43.643Z,93006.00
2023-05-09T00:27:43.701Z,93004.00
2023-05-09T00:28:43.621Z,93006.00
2023-05-09T00:29:43.606Z,93004.00
2023-05-09T00:30:43.609Z,93002.00
2023-05-09T00:31:43.587Z,93002.00
2023-05-09T00:32:43.593Z,93002.00
2023-05-09T00:33:43.524Z,93000.00
2023-05-09T00:34:43.515Z,93002.00
2023-05-09T00:35:43.507Z,93000.00
2023-05-09T00:36:43.535Z,93002.00
2023-05-09T00:37:43.497Z,93000.00
2023-05-09T00:38:43.510Z,93000.00
2023-05-09T00:39:43.467Z,92998.00
2023-05-09T00:40:43.472Z,92998.00
2023-05-09T00:41:43.426Z,92998.00
2023-05-09T00:42:43.433Z,92996.00
2023-05-09T00:43:43.491Z,92994.00
2023-05-09T00:44:43.382Z,92996.00
2023-05-09T00:45:43.400Z,92992.00
2023-05-09T00:46:43.370Z,92994.00
2023-05-09T00:47:43.349Z,92992.00
2023-05-09T00:48:43.330Z,92988.00
2023-05-09T00:49:43.301Z,92988.00
2023-05-09T00:50:43.274Z,92990.00
2023-05-09T00:51:43.248Z,92984.00
2023-05-09T00:52:43.237Z,92984.00
2023-05-09T00:53:43.242Z,92982.00
2023-05-09T00:54:43.219Z,92980.00
2023-05-09T00:55:43.198Z,92982.00
2023-05-09T00:56:43.194Z,92980.00
2023-05-09T00:57:43.181Z,92978.00
2023-05-09T00:58:43.175Z,92978.00
2023-05-09T00:59:43.264Z,92980.00
2023-05-09T01:00:43.201Z,92978.00
2023-05-09T01:01:43.215Z,92978.00
2023-05-09T01:02:43.291Z,92976.00
2023-05-09T01:03:43.354Z,92976.00
2023-05-09T01:04:44.115Z,92978.00
2023-05-09T01:05:43.129Z,92978.00
2023-05-09T01:06:43.146Z,92976.00
2023-05-09T01:07:43.100Z,92978.00
2023-05-09T01:08:43.131Z,92975.00
2023-05-09T01:09:43.104Z,92975.00
2023-05-09T01:10:43.112Z,92976.00
2023-05-09T01:11:43.076Z,92971.00
2023-05-09T01:12:43.084Z,92973.00
2023-05-09T01:13:43.032Z,92973.00
2023-05-09T01:14:43.060Z,92971.00
2023-05-09T01:15:43.106Z,92971.00
2023-05-09T01:16:43.010Z,92969.00
2023-05-09T01:17:43.004Z,92969.00
2023-05-09T01:18:42.979Z,92965.00
2023-05-09T01:19:42.944Z,92965.00
2023-05-09T01:20:42.922Z,92965.00
2023-05-09T01:21:42.901Z,92963.00
2023-05-09T01:22:42.905Z,92963.00
2023-05-09T01:23:42.880Z,92965.00
2023-05-09T01:24:42.878Z,92965.00
2023-05-09T01:25:42.852Z,92967.00
2023-05-09T01:26:42.842Z,92965.00
2023-05-09T01:27:42.825Z,92963.00
2023-05-09T01:28:42.817Z,92963.00
2023-05-09T01:29:42.814Z,92963.00
2023-05-09T01:30:42.811Z,92963.00
2023-05-09T01:31:42.899Z,92963.00
2023-05-09T01:32:42.869Z,92963.00
2023-05-09T01:33:42.762Z,92961.00
2023-05-09T01:34:42.744Z,92963.00
2023-05-09T01:35:42.739Z,92961.00
2023-05-09T01:36:42.706Z,92961.00
2023-05-09T01:37:42.723Z,92959.00
2023-05-09T01:38:42.683Z,92959.00
2023-05-09T01:39:42.697Z,92959.00
2023-05-09T01:40:42.662Z,92957.00
2023-05-09T01:41:42.672Z,92957.00
2023-05-09T01:42:42.670Z,92955.00
2023-05-09T01:43:42.722Z,92953.00
2023-05-09T01:44:42.634Z,92955.00
2023-05-09T01:45:42.616Z,92953.00
2023-05-09T01:46:42.628Z,92951.00
2023-05-09T01:47:42.710Z,92951.00
2023-05-09T01:48:42.568Z,92953.00
2023-05-09T01:49:42.557Z,92947.00
2023-05-09T01:50:42.563Z,92949.00
2023-05-09T01:51:43.956Z,92945.00
2023-05-09T01:52:42.559Z,92943.00
2023-05-09T01:53:42.537Z,92943.00
2023-05-09T01:54:42.542Z,92941.00
2023-05-09T01:55:42.531Z,92941.00
2023-05-09T01:56:42.539Z,92939.00
2023-05-09T01:57:42.522Z,92939.00
2023-05-09T01:58:42.525Z,92939.00
2023-05-09T01:59:42.495Z,92937.00
2023-05-09T02:00:42.543Z,92937.00
2023-05-09T02:01:42.489Z,92935.00
2023-05-09T02:02:42.622Z,92933.00
2023-05-09T02:03:42.575Z,92933.00
2023-05-09T02:04:42.500Z,92931.00
2023-05-09T02:05:42.476Z,92931.00
2023-05-09T02:06:42.469Z,92929.00
2023-05-09T02:07:42.446Z,92928.00
2023-05-09T02:08:42.455Z,92928.00
2023-05-09T02:09:42.426Z,92926.00
2023-05-09T02:10:42.426Z,92924.00
2023-05-09T02:11:42.420Z,92924.00
2023-05-09T02:12:42.470Z,92924.00
2023-05-09T02:13:42.396Z,92926.00
2023-05-09T02:14:42.378Z,92924.00
2023-05-09T02:15:42.373Z,92926.00
2023-05-09T02:16:42.371Z,92924.00
2023-05-09T02:17:42.462Z,92926.00
2023-05-09T02:18:42.391Z,92926.00
2023-05-09T02:19:42.535Z,92926.00
2023-05-09T02:20:42.397Z,92928.00
2023-05-09T02:21:42.424Z,92928.00
2023-05-09T02:22:42.407Z,92926.00
2023-05-09T02:23:42.418Z,92926.00
2023-05-09T02:24:42.434Z,92928.00
2023-05-09T02:25:42.449Z,92928.00
2023-05-09T02:26:42.482Z,92928.00
2023-05-09T02:27:42.509Z,92926.00
2023-05-09T02:28:42.532Z,92924.00
2023-05-09T02:29:42.560Z,92926.00
2023-05-09T02:30:42.569Z,92926.00
2023-05-09T02:31:42.605Z,92926.00
2023-05-09T02:32:42.662Z,92928.00
2023-05-09T02:33:42.647Z,92928.00
2023-05-09T02:34:42.704Z,92926.00
2023-05-09T02:35:42.772Z,92928.00
2023-05-09T02:36:42.746Z,92926.00
2023-05-09T02:37:42.751Z,92926.00
2023-05-09T02:38:42.811Z,92924.00
2023-05-09T02:39:42.763Z,92926.00
2023-05-09T02:40:42.826Z,92924.00
2023-05-09T02:41:42.828Z,92926.00
2023-05-09T02:42:42.833Z,92924.00
2023-05-09T02:43:42.841Z,92926.00
2023-05-09T02:44:42.834Z,92926.00
2023-05-09T02:45:42.911Z,92928.00
2023-05-09T02:46:42.842Z,92926.00
2023-05-09T02:47:42.872Z,92929.00
2023-05-09T02:48:42.846Z,92926.00
2023-05-09T02:49:42.858Z,92926.00
2023-05-09T02:50:42.924Z,92926.00
2023-05-09T02:51:42.972Z,92926.00
2023-05-09T02:52:42.882Z,92928.00
2023-05-09T02:53:42.912Z,92928.00
2023-05-09T02:54:42.899Z,92926.00
2023-05-09T02:55:42.926Z,92926.00
2023-05-09T02:56:42.914Z,92926.00
2023-05-09T02:57:42.941Z,92928.00
2023-05-09T02:58:42.947Z,92928.00
2023-05-09T02:59:42.937Z,92929.00
2023-05-09T03:00:42.957Z,92928.00
2023-05-09T03:01:42.969Z,92926.00
2023-05-09T03:02:42.996Z,92926.00
2023-05-09T03:03:43.038Z,92924.00
2023-05-09T03:04:42.960Z,92924.00
2023-05-09T03:05:42.987Z,92922.00
2023-05-09T03:06:43.010Z,92922.00
2023-05-09T03:07:43.067Z,92920.00
2023-05-09T03:08:43.011Z,92920.00
2023-05-09T03:09:42.991Z,92918.00
2023-05-09T03:10:43.038Z,92918.00
2023-05-09T03:11:43.019Z,92918.00
2023-05-09T03:12:43.070Z,92918.00
2023-05-09T03:13:43.046Z,92920.00
2023-05-09T03:14:43.076Z,92920.00
2023-05-09T03:15:43.089Z,92922.00
2023-05-09T03:16:43.097Z,92922.00
2023-05-09T03:17:43.150Z,92920.00
2023-05-09T03:18:43.130Z,92922.00
2023-05-09T03:19:43.123Z,92924.00
2023-05-09T03:20:43.134Z,92922.00
2023-05-09T03:21:43.134Z,92922.00
2023-05-09T03:22:43.154Z,92920.00
2023-05-09T03:23:43.246Z,92920.00
2023-05-09T03:24:43.146Z,92922.00
2023-05-09T03:25:43.155Z,92922.00
2023-05-09T03:26:43.133Z,92924.00
2023-05-09T03:27:43.176Z,92922.00
2023-05-09T03:28:43.150Z,92924.00
2023-05-09T03:29:43.175Z,92922.00
2023-05-09T03:30:43.171Z,92926.00
2023-05-09T03:31:43.290Z,92922.00
2023-05-09T03:32:43.270Z,92922.00
2023-05-09T03:33:43.206Z,92920.00
2023-05-09T03:34:43.196Z,92918.00
2023-05-09T03:35:43.201Z,92918.00
2023-05-09T03:36:43.208Z,92916.00
2023-05-09T03:37:43.207Z,92914.00
2023-05-09T03:38:43.219Z,92916.00
2023-05-09T03:39:43.299Z,92916.00
2023-05-09T03:40:43.221Z,92916.00
2023-05-09T03:41:43.209Z,92918.00
2023-05-09T03:42:43.219Z,92918.00
2023-05-09T03:43:43.210Z,92916.00
2023-05-09T03:44:43.216Z,92918.00
2023-05-09T03:45:43.211Z,92918.00
2023-05-09T03:46:43.266Z,92918.00
2023-05-09T03:47:43.206Z,92918.00
2023-05-09T03:48:43.233Z,92916.00
2023-05-09T03:49:43.202Z,92916.00
2023-05-09T03:50:43.241Z,92912.00
2023-05-09T03:51:43.207Z,92912.00
2023-05-09T03:52:43.262Z,92912.00
2023-05-09T03:53:43.259Z,92910.00
2023-05-09T03:54:43.287Z,92912.00
2023-05-09T03:55:43.366Z,92912.00
2023-05-09T03:56:43.291Z,92912.00
2023-05-09T03:57:43.282Z,92910.00
2023-05-09T03:58:43.283Z,92912.00
2023-05-09T03:59:43.322Z,92910.00
2023-05-09T04:00:43.290Z,92908.00
2023-05-09T04:01:43.305Z,92910.00
2023-05-09T04:02:43.320Z,92908.00
2023-05-09T04:03:43.453Z,92908.00
2023-05-09T04:04:43.295Z,92910.00
2023-05-09T04:05:43.305Z,92908.00
2023-05-09T04:06:43.302Z,92912.00
2023-05-09T04:07:43.318Z,92914.00
2023-05-09T04:08:43.308Z,92914.00
2023-05-09T04:09:43.319Z,92916.00
2023-05-09T04:10:43.281Z,92918.00
2023-05-09T04:11:43.398Z,92918.00
2023-05-09T04:12:43.302Z,92918.00
2023-05-09T04:13:43.329Z,92916.00
2023-05-09T04:14:43.304Z,92918.00
2023-05-09T04:15:43.295Z,92914.00
2023-05-09T04:16:43.277Z,92916.00
2023-05-09T04:17:43.353Z,92916.00
2023-05-09T04:18:43.255Z,92912.00
2023-05-09T04:19:43.269Z,92910.00
2023-05-09T04:20:43.241Z,92912.00
2023-05-09T04:21:43.236Z,92910.00
2023-05-09T04:22:45.398Z,92910.00
2023-05-09T04:23:43.189Z,92908.00
2023-05-09T04:24:43.154Z,92908.00
2023-05-09T04:25:43.101Z,92906.00
2023-05-09T04:26:43.068Z,92906.00
2023-05-09T04:27:43.109Z,92904.00
2023-05-09T04:28:42.976Z,92900.00
2023-05-09T04:29:42.936Z,92902.00
2023-05-09T04:30:42.909Z,92900.00
2023-05-09T04:31:42.998Z,92900.00
2023-05-09T04:32:42.841Z,92902.00
2023-05-09T04:33:42.773Z,92902.00
2023-05-09T04:34:42.726Z,92902.00
2023-05-09T04:35:42.668Z,92904.00
2023-05-09T04:36:42.623Z,92906.00
2023-05-09T04:37:42.575Z,92904.00
2023-05-09T04:38:42.540Z,92904.00
2023-05-09T04:39:42.484Z,92904.00
2023-05-09T04:40:42.438Z,92904.00
2023-05-09T04:41:43.393Z,92896.00
2023-05-09T04:42:42.348Z,92902.00
2023-05-09T04:43:42.413Z,92900.00
2023-05-09T04:44:42.274Z,92892.00
2023-05-09T04:45:42.224Z,92894.00
2023-05-09T04:46:42.247Z,92894.00
2023-05-09T04:47:42.189Z,92900.00
2023-05-09T04:48:42.091Z,92894.00
2023-05-09T04:49:42.090Z,92900.00
2023-05-09T04:50:41.991Z,92900.00
2023-05-09T04:51:41.955Z,92900.00
2023-05-09T04:52:41.906Z,92900.00
2023-05-09T04:53:41.867Z,92902.00
2023-05-09T04:54:41.850Z,92902.00
2023-05-09T04:55:41.820Z,92902.00
2023-05-09T04:56:41.802Z,92906.00
2023-05-09T04:57:41.799Z,92906.00
2023-05-09T04:58:41.758Z,92906.00
2023-05-09T04:59:41.826Z,92908.00
2023-05-09T05:00:41.719Z,92908.00
2023-05-09T05:01:41.750Z,92908.00
2023-05-09T05:02:41.731Z,92908.00
2023-05-09T05:03:41.701Z,92906.00
2023-05-09T05:04:41.756Z,92906.00
2023-05-09T05:05:41.817Z,92904.00
2023-05-09T05:06:41.723Z,92904.00
2023-05-09T05:07:41.698Z,92902.00
2023-05-09T05:08:41.719Z,92904.00
2023-05-09T05:09:41.699Z,92902.00
2023-05-09T05:10:41.688Z,92902.00
2023-05-09T05:11:47.494Z,92902.00
2023-05-09T05:12:42.688Z,92904.00
2023-05-09T05:13:41.606Z,92904.00
2023-05-09T05:14:41.584Z,92906.00
2023-05-09T05:15:41.616Z,92906.00
2023-05-09T05:16:41.521Z,92908.00
2023-05-09T05:17:41.514Z,92910.00
2023-05-09T05:18:41.417Z,92908.00
2023-05-09T05:19:41.365Z,92908.00
2023-05-09T05:20:41.325Z,92906.00
2023-05-09T05:21:41.285Z,92910.00
2023-05-09T05:22:41.243Z,92908.00
2023-05-09T05:23:41.185Z,92906.00
2023-05-09T05:24:41.175Z,92910.00
2023-05-09T05:25:41.143Z,92914.00
2023-05-09T05:26:41.156Z,92910.00
2023-05-09T05:27:41.153Z,92914.00
2023-05-09T05:28:41.170Z,92914.00
2023-05-09T05:29:41.169Z,92914.00
2023-05-09T05:30:41.212Z,92912.00
2023-05-09T05:31:41.331Z,92914.00
2023-05-09T05:32:41.206Z,92912.00
2023-05-09T05:33:41.219Z,92912.00
2023-05-09T05:34:41.222Z,92912.00
2023-05-09T05:35:41.261Z,92914.00
2023-05-09T05:36:41.249Z,92912.00
2023-05-09T05:37:41.275Z,92914.00
2023-05-09T05:38:41.264Z,92912.00
2023-05-09T05:39:41.287Z,92914.00
2023-05-09T05:40:41.287Z,92912.00
2023-05-09T05:41:41.305Z,92912.00
2023-05-09T05:42:41.324Z,92912.00
2023-05-09T05:43:41.324Z,92914.00
2023-05-09T05:44:41.328Z,92916.00
2023-05-09T05:45:41.374Z,92914.00
2023-05-09T05:46:41.331Z,92916.00
2023-05-09T05:47:41.430Z,92918.00
2023-05-09T05:48:41.332Z,92918.00
2023-05-09T05:49:42.230Z,92912.00
2023-05-09T05:50:41.306Z,92916.00
2023-05-09T05:51:41.315Z,92916.00
2023-05-09T05:52:41.319Z,92918.00
2023-05-09T05:53:41.305Z,92918.00
2023-05-09T05:54:41.319Z,92918.00
2023-05-09T05:55:41.306Z,92916.00
2023-05-09T05:56:41.310Z,92914.00
2023-05-09T05:57:41.311Z,92910.00
2023-05-09T05:58:41.305Z,92910.00
2023-05-09T05:59:41.305Z,92910.00
2023-05-09T06:00:41.291Z,92908.00
2023-05-09T06:01:41.457Z,92910.00
2023-05-09T06:02:41.427Z,92908.00
2023-05-09T06:03:41.512Z,92910.00
2023-05-09T06:04:41.269Z,92912.00
2023-05-09T06:05:41.261Z,92910.00
2023-05-09T06:06:41.246Z,92906.00
2023-05-09T06:07:41.223Z,92906.00
2023-05-09T06:08:41.218Z,92902.00
2023-05-09T06:09:41.227Z,92904.00
2023-05-09T06:10:41.209Z,92900.00
2023-05-09T06:11:41.224Z,92902.00
2023-05-09T06:12:41.230Z,92900.00
2023-05-09T06:13:41.210Z,92898.00
2023-05-09T06:14:41.160Z,92898.00
2023-05-09T06:15:41.189Z,92898.00
2023-05-09T06:16:41.160Z,92896.00
2023-05-09T06:17:41.135Z,92894.00
2023-05-09T06:18:41.097Z,92896.00
2023-05-09T06:19:41.164Z,92894.00
2023-05-09T06:20:41.064Z,92894.00
2023-05-09T06:21:41.126Z,92890.00
2023-05-09T06:22:41.052Z,92890.00
2023-05-09T06:23:51.003Z,92894.00
2023-05-09T06:24:42.001Z,92894.00
2023-05-09T06:25:40.956Z,92892.00
2023-05-09T06:26:40.902Z,92896.00
2023-05-09T06:27:40.883Z,92890.00
2023-05-09T06:28:40.817Z,92896.00
2023-05-09T06:29:40.775Z,92896.00
2023-05-09T06:30:40.739Z,92900.00
2023-05-09T06:31:40.740Z,92898.00
2023-05-09T06:32:40.655Z,92898.00
2023-05-09T06:33:40.607Z,92898.00
2023-05-09T06:34:40.604Z,92894.00
2023-05-09T06:35:40.740Z,92894.00
2023-05-09T06:36:40.594Z,92892.00
2023-05-09T06:37:40.606Z,92890.00
2023-05-09T06:38:40.622Z,92892.00
2023-05-09T06:39:40.609Z,92894.00
2023-05-09T06:40:40.750Z,92890.00
2023-05-09T06:41:40.644Z,92894.00
2023-05-09T06:42:40.687Z,92886.00
2023-05-09T06:43:40.695Z,92888.00
2023-05-09T06:44:40.719Z,92884.00
2023-05-09T06:45:40.742Z,92882.00
2023-05-09T06:46:40.799Z,92881.00
2023-05-09T06:47:40.804Z,92879.00
2023-05-09T06:48:40.781Z,92879.00
2023-05-09T06:49:40.790Z,92875.00
2023-05-09T06:50:40.807Z,92873.00
2023-05-09T06:51:40.907Z,92873.00
2023-05-09T06:52:40.828Z,92869.00
2023-05-09T06:53:40.853Z,92869.00
2023-05-09T06:54:40.940Z,92869.00
2023-05-09T06:55:40.880Z,92873.00
2023-05-09T06:56:40.901Z,92871.00
2023-05-09T06:57:40.953Z,92873.00
2023-05-09T06:58:40.926Z,92875.00
2023-05-09T06:59:40.980Z,92877.00
2023-05-09T07:00:40.940Z,92877.00
2023-05-09T07:01:41.111Z,92877.00
2023-05-09T07:02:41.035Z,92879.00
2023-05-09T07:03:40.992Z,92877.00
2023-05-09T07:04:41.050Z,92875.00
2023-05-09T07:05:41.016Z,92871.00
2023-05-09T07:06:41.039Z,92869.00
2023-05-09T07:07:41.142Z,92871.00
2023-05-09T07:08:41.046Z,92869.00
2023-05-09T07:09:41.055Z,92869.00
2023-05-09T07:10:41.066Z,92867.00
2023-05-09T07:11:41.082Z,92865.00
2023-05-09T07:12:41.130Z,92863.00
2023-05-09T07:13:41.126Z,92861.00
2023-05-09T07:14:41.169Z,92861.00
2023-05-09T07:15:42.968Z,92855.00
2023-05-09T07:16:41.318Z,92853.00
2023-05-09T07:17:41.229Z,92851.00
2023-05-09T07:18:41.235Z,92851.00
2023-05-09T07:19:41.240Z,92849.00
2023-05-09T07:20:41.245Z,92845.00
2023-05-09T07:21:41.241Z,92843.00
2023-05-09T07:22:41.328Z,92843.00
2023-05-09T07:23:41.362Z,92843.00
2023-05-09T07:24:41.274Z,92836.00
2023-05-09T07:25:41.268Z,92834.00
2023-05-09T07:26:41.267Z,92843.00
2023-05-09T07:27:41.318Z,92832.00
2023-05-09T07:28:41.295Z,92830.00
2023-05-09T07:29:41.328Z,92826.00
2023-05-09T07:30:41.314Z,92822.00
2023-05-09T07:31:41.361Z,92824.00
2023-05-09T07:32:41.356Z,92818.00
2023-05-09T07:33:41.358Z,92814.00
2023-05-09T07:34:41.335Z,92814.00
2023-05-09T07:35:41.318Z,92814.00
2023-05-09T07:36:41.293Z,92810.00
2023-05-09T07:37:42.283Z,92808.00
2023-05-09T07:38:41.366Z,92806.00
2023-05-09T07:39:41.458Z,92800.00
2023-05-09T07:40:41.367Z,92800.00
2023-05-09T07:41:41.393Z,92800.00
2023-05-09T07:42:41.378Z,92798.00
2023-05-09T07:43:41.385Z,92798.00
2023-05-09T07:44:42.286Z,92794.00
2023-05-09T07:45:41.452Z,92792.00
2023-05-09T07:46:41.353Z,92792.00
2023-05-09T07:47:41.368Z,92792.00
2023-05-09T07:48:41.344Z,92790.00
2023-05-09T07:49:41.321Z,92785.00
2023-05-09T07:50:41.319Z,92789.00
2023-05-09T07:51:41.304Z,92787.00
2023-05-09T07:52:41.280Z,92785.00
2023-05-09T07:53:41.221Z,92787.00
2023-05-09T07:54:41.229Z,92787.00
2023-05-09T07:55:41.260Z,92787.00
2023-05-09T07:56:41.170Z,92787.00
2023-05-09T07:57:41.813Z,92785.00
2023-05-09T07:58:41.087Z,92785.00
2023-05-09T07:59:41.117Z,92785.00
2023-05-09T08:00:41.026Z,92777.00
2023-05-09T08:01:40.979Z,92779.00
2023-05-09T08:02:41.086Z,92775.00
2023-05-09T08:03:40.941Z,92773.00
2023-05-09T08:04:41.671Z,92773.00
2023-05-09T08:05:40.846Z,92773.00
2023-05-09T08:06:40.796Z,92771.00
2023-05-09T08:07:40.764Z,92771.00
2023-05-09T08:08:40.732Z,92769.00
2023-05-09T08:09:40.708Z,92769.00
2023-05-09T08:10:40.674Z,92765.00
2023-05-09T08:11:41.382Z,92763.00
2023-05-09T08:12:40.644Z,92759.00
2023-05-09T08:13:40.576Z,92755.00
2023-05-09T08:14:40.520Z,92753.00
2023-05-09T08:15:40.590Z,92755.00
2023-05-09T08:16:40.530Z,92755.00
2023-05-09T08:17:40.539Z,92751.00
2023-05-09T08:18:40.410Z,92751.00
2023-05-09T08:19:40.395Z,92749.00
2023-05-09T08:20:40.366Z,92751.00
2023-05-09T08:21:40.472Z,92747.00
2023-05-09T08:22:40.343Z,92747.00
2023-05-09T08:23:40.470Z,92742.00
2023-05-09T08:24:40.534Z,92743.00
2023-05-09T08:25:40.261Z,92740.00
2023-05-09T08:26:40.276Z,92740.00
2023-05-09T08:27:40.325Z,92738.00
2023-05-09T08:28:40.278Z,92738.00
2023-05-09T08:29:40.215Z,92740.00
2023-05-09T08:30:40.224Z,92736.00
2023-05-09T08:31:40.189Z,92730.00
2023-05-09T08:32:40.227Z,92726.00
2023-05-09T08:33:41.970Z,92724.00
2023-05-09T08:34:40.133Z,92724.00
2023-05-09T08:35:40.084Z,92724.00
2023-05-09T08:36:40.054Z,92726.00
2023-05-09T08:37:40.006Z,92722.00
2023-05-09T08:38:39.989Z,92718.00
2023-05-09T08:39:39.953Z,92718.00
2023-05-09T08:40:39.927Z,92714.00
2023-05-09T08:41:39.878Z,92718.00
2023-05-09T08:42:39.853Z,92716.00
2023-05-09T08:43:39.892Z,92714.00
2023-05-09T08:44:39.781Z,92716.00
2023-05-09T08:45:39.755Z,92716.00
2023-05-09T08:46:39.836Z,92712.00
2023-05-09T08:47:39.760Z,92708.00
2023-05-09T08:48:39.682Z,92704.00
2023-05-09T08:49:39.653Z,92704.00
2023-05-09T08:50:39.597Z,92702.00
2023-05-09T08:51:39.572Z,92702.00
2023-05-09T08:52:39.531Z,92698.00
2023-05-09T08:53:39.523Z,92696.00
2023-05-09T08:54:39.481Z,92695.00
2023-05-09T08:55:39.473Z,92691.00
2023-05-09T08:56:39.454Z,92691.00
2023-05-09T08:57:39.421Z,92693.00
2023-05-09T08:58:39.834Z,92689.00
2023-05-09T08:59:39.466Z,92689.00
2023-05-09T09:00:39.361Z,92687.00
2023-05-09T09:01:39.330Z,92687.00
2023-05-09T09:02:39.393Z,92685.00
2023-05-09T09:03:39.302Z,92683.00
2023-05-09T09:04:39.396Z,92681.00
2023-05-09T09:05:41.322Z,92679.00
2023-05-09T09:06:39.214Z,92677.00
2023-05-09T09:07:39.149Z,92673.00
2023-05-09T09:08:39.087Z,92679.00
2023-05-09T09:09:39.057Z,92671.00
2023-05-09T09:10:38.962Z,92671.00
2023-05-09T09:11:39.077Z,92673.00
2023-05-09T09:12:38.844Z,92673.00
2023-05-09T09:13:38.776Z,92671.00
2023-05-09T09:14:38.909Z,92673.00
2023-05-09T09:15:38.720Z,92669.00
2023-05-09T09:16:38.620Z,92663.00
2023-05-09T09:17:39.408Z,92659.00
2023-05-09T09:18:39.745Z,92657.00
2023-05-09T09:19:38.499Z,92655.00
2023-05-09T09:20:38.280Z,92651.00
2023-05-09T09:21:38.233Z,92651.00
2023-05-09T09:22:38.168Z,92651.00
2023-05-09T09:23:38.109Z,92649.00
2023-05-09T09:24:38.026Z,92646.00
2023-05-09T09:25:37.971Z,92649.00
2023-05-09T09:26:37.875Z,92646.00
2023-05-09T09:27:38.356Z,92646.00
2023-05-09T09:28:37.757Z,92646.00
2023-05-09T09:29:37.708Z,92640.00
2023-05-09T09:30:37.632Z,92640.00
2023-05-09T09:31:37.740Z,92638.00
2023-05-09T09:32:37.591Z,92632.00
2023-05-09T09:33:37.441Z,92632.00
2023-05-09T09:34:37.384Z,92630.00
2023-05-09T09:35:37.313Z,92626.00
2023-05-09T09:36:37.288Z,92624.00
2023-05-09T09:37:37.277Z,92622.00
2023-05-09T09:38:37.239Z,92620.00
2023-05-09T09:39:37.238Z,92622.00
2023-05-09T09:40:37.211Z,92618.00
2023-05-09T09:41:37.179Z,92612.00
2023-05-09T09:42:37.186Z,92610.00
2023-05-09T09:43:37.138Z,92608.00
2023-05-09T09:44:37.150Z,92606.00
2023-05-09T09:45:37.144Z,92604.00
2023-05-09T09:46:37.330Z,92604.00
2023-05-09T09:47:37.174Z,92598.00
2023-05-09T09:48:37.033Z,92596.00
2023-05-09T09:49:37.052Z,92596.00
2023-05-09T09:50:37.086Z,92591.00
2023-05-09T09:51:37.021Z,92591.00
2023-05-09T09:52:36.977Z,92591.00
2023-05-09T09:53:36.975Z,92589.00
2023-05-09T09:54:36.961Z,92579.00
2023-05-09T09:55:36.924Z,92577.00
2023-05-09T09:56:36.916Z,92575.00
2023-05-09T09:57:36.891Z,92575.00
2023-05-09T09:58:36.871Z,92573.00
2023-05-09T09:59:36.850Z,92569.00
2023-05-09T10:00:36.839Z,92569.00
2023-05-09T10:01:36.872Z,92567.00
2023-05-09T10:02:36.847Z,92565.00
2023-05-09T10:03:36.883Z,92565.00
2023-05-09T10:04:36.891Z,92557.00
2023-05-09T10:05:36.729Z,92557.00
2023-05-09T10:06:36.725Z,92557.00
2023-05-09T10:07:36.708Z,92556.00
2023-05-09T10:08:36.688Z,92556.00
2023-05-09T10:09:36.672Z,92552.00
2023-05-09T10:10:36.660Z,92550.00
2023-05-09T10:11:36.640Z,92550.00
2023-05-09T10:12:36.598Z,92548.00
2023-05-09T10:13:36.602Z,92550.00
2023-05-09T10:14:36.593Z,92548.00
2023-05-09T10:15:49.317Z,92546.00
2023-05-09T10:16:43.775Z,92544.00
2023-05-09T10:17:37.650Z,92548.00
2023-05-09T10:18:37.497Z,92542.00
2023-05-09T10:19:36.434Z,92540.00
2023-05-09T10:20:36.258Z,92542.00
2023-05-09T10:21:36.787Z,92540.00
2023-05-09T10:22:36.153Z,92540.00
2023-05-09T10:23:36.088Z,92536.00
2023-05-09T10:24:36.016Z,92538.00
2023-05-09T10:25:35.963Z,92536.00
2023-05-09T10:26:35.893Z,92536.00
2023-05-09T10:27:35.854Z,92534.00
2023-05-09T10:28:35.801Z,92534.00
2023-05-09T10:29:35.721Z,92528.00
2023-05-09T10:30:35.657Z,92528.00
2023-05-09T10:31:35.621Z,92522.00
2023-05-09T10:32:35.559Z,92522.00
2023-05-09T10:33:35.481Z,92520.00
2023-05-09T10:34:35.425Z,92518.00
2023-05-09T10:35:35.385Z,92518.00
2023-05-09T10:36:35.325Z,92516.00
2023-05-09T10:37:35.283Z,92514.00
2023-05-09T10:38:35.258Z,92512.00
2023-05-09T10:39:35.228Z,92512.00
2023-05-09T10:40:35.187Z,92508.00
2023-05-09T10:41:35.157Z,92508.00
2023-05-09T10:42:35.128Z,92510.00
2023-05-09T10:43:36.695Z,92508.00
2023-05-09T10:44:35.082Z,92506.00
2023-05-09T10:45:35.037Z,92506.00
2023-05-09T10:46:35.090Z,92504.00
2023-05-09T10:47:35.008Z,92502.00
2023-05-09T10:48:34.941Z,92497.00
2023-05-09T10:49:36.354Z,92493.00
2023-05-09T10:50:34.852Z,92491.00
2023-05-09T10:51:34.893Z,92489.00
2023-05-09T10:52:34.772Z,92487.00
2023-05-09T10:53:34.736Z,92485.00
2023-05-09T10:54:34.698Z,92481.00
2023-05-09T10:55:34.720Z,92481.00
2023-05-09T10:56:34.647Z,92479.00
2023-05-09T10:57:34.582Z,92475.00
2023-05-09T10:58:34.558Z,92475.00
2023-05-09T10:59:34.525Z,92475.00
2023-05-09T11:00:34.491Z,92469.00
2023-05-09T11:01:34.478Z,92467.00
2023-05-09T11:02:34.429Z,92465.00
2023-05-09T11:03:34.445Z,92465.00
2023-05-09T11:04:34.362Z,92463.00
2023-05-09T11:05:34.292Z,92459.00
2023-05-09T11:06:34.275Z,92459.00
2023-05-09T11:07:34.308Z,92455.00
2023-05-09T11:08:34.206Z,92455.00
2023-05-09T11:09:34.158Z,92450.00
2023-05-09T11:10:34.119Z,92446.00
2023-05-09T11:11:34.057Z,92448.00
2023-05-09T11:12:34.021Z,92442.00
2023-05-09T11:13:34.032Z,92440.00
2023-05-09T11:14:33.962Z,92440.00
2023-05-09T11:15:33.911Z,92440.00
2023-05-09T11:16:33.992Z,92438.00
2023-05-09T11:17:33.878Z,92430.00
2023-05-09T11:18:33.842Z,92428.00
2023-05-09T11:19:33.803Z,92432.00
2023-05-09T11:20:33.770Z,92426.00
2023-05-09T11:21:33.745Z,92428.00
2023-05-09T11:22:33.707Z,92418.00
2023-05-09T11:23:33.788Z,92418.00
2023-05-09T11:24:33.659Z,92418.00
2023-05-09T11:25:33.619Z,92412.00
2023-05-09T11:26:33.628Z,92410.00
2023-05-09T11:27:33.565Z,92410.00
2023-05-09T11:28:33.537Z,92410.00
2023-05-09T11:29:33.546Z,92408.00
2023-05-09T11:30:33.434Z,92407.00
2023-05-09T11:31:33.499Z,92403.00
2023-05-09T11:32:33.365Z,92403.00
2023-05-09T11:33:33.371Z,92407.00
2023-05-09T11:34:33.896Z,92401.00
2023-05-09T11:35:33.279Z,92399.00
2023-05-09T11:36:33.243Z,92399.00
2023-05-09T11:37:33.207Z,92395.00
2023-05-09T11:38:33.149Z,92395.00
2023-05-09T11:39:33.238Z,92391.00
2023-05-09T11:40:33.094Z,92391.00
2023-05-09T11:41:33.062Z,92389.00
2023-05-09T11:42:33.014Z,92389.00
2023-05-09T11:43:33.824Z,92379.00
2023-05-09T11:44:32.941Z,92377.00